sensor_id;sensor_type;location;lat;lon;timestamp;pressure;altitude;pressure_sealevel;temperature;humidity
77325;BME280;66387;53.440;10.390;2022-12-29T00:02:07;99457.88;;;7.10;92.33
77325;BME280;66387;53.440;10.390;2022-12-29T00:04:32;99447.63;;;7.06;92.44
77325;BME280;66387;53.440;10.390;2022-12-29T00:06:57;99438.06;;;7.11;92.85
77325;BME280;66387;53.440;10.390;2022-12-29T00:09:23;99456.97;;;7.11;92.93
77325;BME280;66387;53.440;10.390;2022-12-29T00:11:48;99426.00;;;7.11;92.93
77325;BME280;66387;53.440;10.390;2022-12-29T00:14:15;99437.22;;;7.10;92.89
77325;BME280;66387;53.440;10.390;2022-12-29T00:16:59;99436.34;;;7.11;92.84
77325;BME280;66387;53.440;10.390;2022-12-29T00:19:24;99427.72;;;7.12;93.26
77325;BME280;66387;53.440;10.390;2022-12-29T00:22:10;99419.16;;;7.10;93.12
77325;BME280;66387;53.440;10.390;2022-12-29T00:24:54;99424.34;;;7.10;92.92
77325;BME280;66387;53.440;10.390;2022-12-29T00:27:20;99436.38;;;7.08;92.98
77325;BME280;66387;53.440;10.390;2022-12-29T00:30:12;99434.59;;;7.12;92.72
77325;BME280;66387;53.440;10.390;2022-12-29T00:32:57;99437.06;;;7.18;92.74
77325;BME280;66387;53.440;10.390;2022-12-29T00:35:53;99435.28;;;7.21;92.45
77325;BME280;66387;53.440;10.390;2022-12-29T00:38:18;99435.28;;;7.21;92.48
77325;BME280;66387;53.440;10.390;2022-12-29T00:41:02;99436.91;;;7.27;92.68
77325;BME280;66387;53.440;10.390;2022-12-29T00:43:46;99439.50;;;7.25;92.53
77325;BME280;66387;53.440;10.390;2022-12-29T00:46:30;99424.88;;;7.27;92.67
77325;BME280;66387;53.440;10.390;2022-12-29T00:48:56;99425.66;;;7.29;92.86
77325;BME280;66387;53.440;10.390;2022-12-29T00:51:40;99413.47;;;7.37;92.45
77325;BME280;66387;53.440;10.390;2022-12-29T00:54:05;99410.81;;;7.40;92.07
77325;BME280;66387;53.440;10.390;2022-12-29T00:56:30;99415.91;;;7.45;91.94
77325;BME280;66387;53.440;10.390;2022-12-29T00:58:59;99414.19;;;7.46;91.87
77325;BME280;66387;53.440;10.390;2022-12-29T01:01:25;99420.13;;;7.49;92.00
77325;BME280;66387;53.440;10.390;2022-12-29T01:03:50;99412.31;;;7.52;91.75
77325;BME280;66387;53.440;10.390;2022-12-29T01:06:15;99417.34;;;7.58;91.44
77325;BME280;66387;53.440;10.390;2022-12-29T01:08:40;99411.88;;;7.73;90.85
77325;BME280;66387;53.440;10.390;2022-12-29T01:11:08;99414.44;;;7.75;90.55
77325;BME280;66387;53.440;10.390;2022-12-29T01:13:34;99418.63;;;7.80;90.60
77325;BME280;66387;53.440;10.390;2022-12-29T01:15:59;99389.41;;;7.78;90.52
77325;BME280;66387;53.440;10.390;2022-12-29T01:18:25;99404.03;;;7.78;90.65
77325;BME280;66387;53.440;10.390;2022-12-29T01:20:58;99396.28;;;7.79;90.83
77325;BME280;66387;53.440;10.390;2022-12-29T01:23:23;99386.75;;;7.81;90.61
77325;BME280;66387;53.440;10.390;2022-12-29T01:25:48;99381.59;;;7.80;90.62
77325;BME280;66387;53.440;10.390;2022-12-29T01:28:14;99378.91;;;7.84;90.30
77325;BME280;66387;53.440;10.390;2022-12-29T01:30:39;99366.84;;;7.85;90.68
77325;BME280;66387;53.440;10.390;2022-12-29T01:33:04;99373.84;;;7.80;90.45
77325;BME280;66387;53.440;10.390;2022-12-29T01:35:29;99366.16;;;7.77;90.48
77325;BME280;66387;53.440;10.390;2022-12-29T01:37:55;99368.75;;;7.77;90.69
77325;BME280;66387;53.440;10.390;2022-12-29T01:40:20;99371.34;;;7.77;90.79
77325;BME280;66387;53.440;10.390;2022-12-29T01:42:45;99355.84;;;7.77;90.89
77325;BME280;66387;53.440;10.390;2022-12-29T01:45:15;99349.88;;;7.75;91.14
77325;BME280;66387;53.440;10.390;2022-12-29T01:47:53;99357.53;;;7.78;90.93
77325;BME280;66387;53.440;10.390;2022-12-29T01:50:26;99355.84;;;7.77;90.90
77325;BME280;66387;53.440;10.390;2022-12-29T01:53:09;99352.31;;;7.81;91.34
77325;BME280;66387;53.440;10.390;2022-12-29T01:55:58;99344.56;;;7.81;91.40
77325;BME280;66387;53.440;10.390;2022-12-29T01:58:29;99340.22;;;7.83;91.69
77325;BME280;66387;53.440;10.390;2022-12-29T02:00:55;99343.50;;;7.89;91.27
77325;BME280;66387;53.440;10.390;2022-12-29T02:03:22;99338.19;;;7.96;91.17
77325;BME280;66387;53.440;10.390;2022-12-29T02:05:57;99332.06;;;8.00;91.04
77325;BME280;66387;53.440;10.390;2022-12-29T02:08:28;99340.59;;;8.05;90.70
77325;BME280;66387;53.440;10.390;2022-12-29T02:10:53;99342.34;;;8.03;90.62
77325;BME280;66387;53.440;10.390;2022-12-29T02:13:19;99332.75;;;8.08;90.31
77325;BME280;66387;53.440;10.390;2022-12-29T02:18:32;99331.03;;;8.08;90.31
77325;BME280;66387;53.440;10.390;2022-12-29T02:21:39;99329.31;;;8.07;90.42
77325;BME280;66387;53.440;10.390;2022-12-29T02:24:31;99337.00;;;8.10;90.08
77325;BME280;66387;53.440;10.390;2022-12-29T02:27:24;99322.34;;;8.09;90.15
77325;BME280;66387;53.440;10.390;2022-12-29T02:30:12;99316.16;;;8.16;89.97
77325;BME280;66387;53.440;10.390;2022-12-29T02:32:52;99323.91;;;8.16;90.46
77325;BME280;66387;53.440;10.390;2022-12-29T02:38:25;99315.34;;;8.14;90.89
77325;BME280;66387;53.440;10.390;2022-12-29T02:41:03;99331.72;;;8.15;91.16
77325;BME280;66387;53.440;10.390;2022-12-29T02:43:49;99311.16;;;8.09;91.85
77325;BME280;66387;53.440;10.390;2022-12-29T02:46:28;99315.56;;;8.05;91.93
77325;BME280;66387;53.440;10.390;2022-12-29T02:49:22;99301.69;;;8.09;91.55
77325;BME280;66387;53.440;10.390;2022-12-29T02:51:58;99313.72;;;8.10;91.49
77325;BME280;66387;53.440;10.390;2022-12-29T02:54:26;99311.06;;;8.13;91.34
77325;BME280;66387;53.440;10.390;2022-12-29T02:57:15;99301.56;;;8.15;90.78
77325;BME280;66387;53.440;10.390;2022-12-29T02:59:55;99298.06;;;8.16;91.19
77325;BME280;66387;53.440;10.390;2022-12-29T03:02:35;99289.53;;;8.13;91.39
77325;BME280;66387;53.440;10.390;2022-12-29T03:05:47;99291.31;;;8.12;91.29
77325;BME280;66387;53.440;10.390;2022-12-29T03:08:40;99281.75;;;8.14;90.98
77325;BME280;66387;53.440;10.390;2022-12-29T03:11:11;99286.06;;;8.15;91.36
77325;BME280;66387;53.440;10.390;2022-12-29T03:14:01;99278.16;;;8.20;90.45
77325;BME280;66387;53.440;10.390;2022-12-29T03:16:53;99267.78;;;8.21;90.57
77325;BME280;66387;53.440;10.390;2022-12-29T03:19:28;99279.75;;;8.25;90.29
77325;BME280;66387;53.440;10.390;2022-12-29T03:21:56;99286.41;;;8.37;89.44
77325;BME280;66387;53.440;10.390;2022-12-29T03:24:47;99267.19;;;8.46;88.85
77325;BME280;66387;53.440;10.390;2022-12-29T03:27:20;99277.34;;;8.53;88.70
77325;BME280;66387;53.440;10.390;2022-12-29T03:29:53;99247.47;;;8.42;89.10
77325;BME280;66387;53.440;10.390;2022-12-29T03:32:21;99254.19;;;8.49;88.88
77325;BME280;66387;53.440;10.390;2022-12-29T03:34:48;99252.25;;;8.57;88.65
77325;BME280;66387;53.440;10.390;2022-12-29T03:37:18;99243.84;;;8.49;88.87
77325;BME280;66387;53.440;10.390;2022-12-29T03:39:45;99252.41;;;8.51;88.62
77325;BME280;66387;53.440;10.390;2022-12-29T03:42:17;99242.06;;;8.51;88.26
77325;BME280;66387;53.440;10.390;2022-12-29T03:44:44;99253.94;;;8.58;87.88
77325;BME280;66387;53.440;10.390;2022-12-29T03:47:11;99248.78;;;8.56;88.42
77325;BME280;66387;53.440;10.390;2022-12-29T03:49:37;99241.19;;;8.52;88.59
77325;BME280;66387;53.440;10.390;2022-12-29T03:52:02;99249.72;;;8.55;88.20
77325;BME280;66387;53.440;10.390;2022-12-29T03:54:29;99240.81;;;8.65;87.69
77325;BME280;66387;53.440;10.390;2022-12-29T03:56:54;99240.13;;;8.59;88.04
77325;BME280;66387;53.440;10.390;2022-12-29T03:59:19;99241.88;;;8.57;87.75
77325;BME280;66387;53.440;10.390;2022-12-29T04:01:44;99230.56;;;8.61;87.88
77325;BME280;66387;53.440;10.390;2022-12-29T04:04:09;99244.47;;;8.57;87.85
77325;BME280;66387;53.440;10.390;2022-12-29T04:06:35;99227.28;;;8.56;88.05
77325;BME280;66387;53.440;10.390;2022-12-29T04:09:00;99246.22;;;8.56;88.47
77325;BME280;66387;53.440;10.390;2022-12-29T04:11:26;99229.09;;;8.52;87.97
77325;BME280;66387;53.440;10.390;2022-12-29T04:13:51;99238.25;;;8.64;87.42
77325;BME280;66387;53.440;10.390;2022-12-29T04:16:16;99228.94;;;8.58;88.46
77325;BME280;66387;53.440;10.390;2022-12-29T04:18:42;99218.47;;;8.63;87.75
77325;BME280;66387;53.440;10.390;2022-12-29T04:21:07;99231.31;;;8.66;87.64
77325;BME280;66387;53.440;10.390;2022-12-29T04:23:35;99212.34;;;8.65;87.73
77325;BME280;66387;53.440;10.390;2022-12-29T04:26:01;99202.75;;;8.70;87.15
77325;BME280;66387;53.440;10.390;2022-12-29T04:28:27;99204.56;;;8.67;87.97
77325;BME280;66387;53.440;10.390;2022-12-29T04:30:52;99204.59;;;8.65;87.39
77325;BME280;66387;53.440;10.390;2022-12-29T04:33:18;99220.09;;;8.67;88.11
77325;BME280;66387;53.440;10.390;2022-12-29T04:35:43;99209.56;;;8.73;87.83
77325;BME280;66387;53.440;10.390;2022-12-29T04:38:09;99217.22;;;8.76;87.77
77325;BME280;66387;53.440;10.390;2022-12-29T04:40:34;99213.00;;;8.73;87.97
77325;BME280;66387;53.440;10.390;2022-12-29T04:43:00;99207.84;;;8.72;88.36
77325;BME280;66387;53.440;10.390;2022-12-29T04:45:25;99216.34;;;8.77;88.17
77325;BME280;66387;53.440;10.390;2022-12-29T04:47:50;99201.59;;;8.79;88.25
77325;BME280;66387;53.440;10.390;2022-12-29T04:50:16;99199.97;;;8.76;88.52
77325;BME280;66387;53.440;10.390;2022-12-29T04:52:41;99200.09;;;8.72;89.09
77325;BME280;66387;53.440;10.390;2022-12-29T04:55:07;99183.72;;;8.71;89.56
77325;BME280;66387;53.440;10.390;2022-12-29T04:57:32;99193.31;;;8.68;89.94
77325;BME280;66387;53.440;10.390;2022-12-29T04:59:57;99185.53;;;8.68;90.32
77325;BME280;66387;53.440;10.390;2022-12-29T05:02:23;99183.09;;;8.63;90.58
77325;BME280;66387;53.440;10.390;2022-12-29T05:04:48;99185.81;;;8.59;91.38
77325;BME280;66387;53.440;10.390;2022-12-29T05:07:14;99176.34;;;8.58;91.37
77325;BME280;66387;53.440;10.390;2022-12-29T05:09:39;99171.22;;;8.56;91.74
77325;BME280;66387;53.440;10.390;2022-12-29T05:12:05;99165.25;;;8.54;92.06
77325;BME280;66387;53.440;10.390;2022-12-29T05:14:30;99169.56;;;8.54;92.46
77325;BME280;66387;53.440;10.390;2022-12-29T05:16:55;99179.13;;;8.52;92.41
77325;BME280;66387;53.440;10.390;2022-12-29T05:19:21;99171.34;;;8.52;92.66
77325;BME280;66387;53.440;10.390;2022-12-29T05:21:46;99172.22;;;8.52;92.67
77325;BME280;66387;53.440;10.390;2022-12-29T05:24:11;99171.28;;;8.53;92.58
77325;BME280;66387;53.440;10.390;2022-12-29T05:26:37;99181.63;;;8.55;92.53
77325;BME280;66387;53.440;10.390;2022-12-29T05:29:02;99175.59;;;8.54;92.74
77325;BME280;66387;53.440;10.390;2022-12-29T05:31:27;99181.63;;;8.55;92.55
77325;BME280;66387;53.440;10.390;2022-12-29T05:33:52;99173.88;;;8.53;92.79
77325;BME280;66387;53.440;10.390;2022-12-29T05:36:18;99182.47;;;8.55;92.29
77325;BME280;66387;53.440;10.390;2022-12-29T05:38:43;99185.72;;;8.62;92.58
77325;BME280;66387;53.440;10.390;2022-12-29T05:41:09;99178.81;;;8.62;92.25
77325;BME280;66387;53.440;10.390;2022-12-29T05:43:34;99174.56;;;8.60;91.60
77325;BME280;66387;53.440;10.390;2022-12-29T05:46:00;99184.75;;;8.66;92.07
77325;BME280;66387;53.440;10.390;2022-12-29T05:48:25;99176.81;;;8.72;91.43
77325;BME280;66387;53.440;10.390;2022-12-29T05:50:51;99169.09;;;8.70;90.79
77325;BME280;66387;53.440;10.390;2022-12-29T05:53:17;99168.09;;;8.74;90.74
77325;BME280;66387;53.440;10.390;2022-12-29T05:55:44;99167.19;;;8.77;90.57
77325;BME280;66387;53.440;10.390;2022-12-29T05:58:09;99180.00;;;8.81;90.37
77325;BME280;66387;53.440;10.390;2022-12-29T06:00:35;99182.53;;;8.83;90.42
77325;BME280;66387;53.440;10.390;2022-12-29T06:03:00;99184.34;;;8.79;90.59
77325;BME280;66387;53.440;10.390;2022-12-29T06:05:25;99186.06;;;8.80;90.08
77325;BME280;66387;53.440;10.390;2022-12-29T06:07:51;99207.28;;;8.92;90.00
77325;BME280;66387;53.440;10.390;2022-12-29T06:10:16;99202.97;;;8.92;89.56
77325;BME280;66387;53.440;10.390;2022-12-29T06:12:41;99187.59;;;8.86;89.62
77325;BME280;66387;53.440;10.390;2022-12-29T06:15:07;99184.22;;;8.84;89.91
77325;BME280;66387;53.440;10.390;2022-12-29T06:17:33;99184.31;;;8.81;90.20
77325;BME280;66387;53.440;10.390;2022-12-29T06:19:58;99178.16;;;8.85;89.70
77325;BME280;66387;53.440;10.390;2022-12-29T06:22:24;99178.16;;;8.85;89.64
77325;BME280;66387;53.440;10.390;2022-12-29T06:24:49;99173.78;;;8.87;90.34
77325;BME280;66387;53.440;10.390;2022-12-29T06:27:14;99189.94;;;8.95;89.78
77325;BME280;66387;53.440;10.390;2022-12-29T06:29:40;99183.16;;;8.91;89.98
77325;BME280;66387;53.440;10.390;2022-12-29T06:32:06;99174.66;;;8.86;90.32
77325;BME280;66387;53.440;10.390;2022-12-29T06:34:31;99185.44;;;9.02;89.04
77325;BME280;66387;53.440;10.390;2022-12-29T06:36:56;99180.13;;;9.06;88.99
77325;BME280;66387;53.440;10.390;2022-12-29T06:39:22;99176.72;;;9.04;89.50
77325;BME280;66387;53.440;10.390;2022-12-29T06:41:47;99172.59;;;8.99;89.82
77325;BME280;66387;53.440;10.390;2022-12-29T06:44:12;99182.34;;;8.89;90.33
77325;BME280;66387;53.440;10.390;2022-12-29T06:46:37;99188.66;;;8.80;90.80
77325;BME280;66387;53.440;10.390;2022-12-29T06:49:03;99180.97;;;8.77;91.10
77325;BME280;66387;53.440;10.390;2022-12-29T06:51:28;99170.63;;;8.77;91.35
77325;BME280;66387;53.440;10.390;2022-12-29T06:53:53;99168.84;;;8.78;91.01
77325;BME280;66387;53.440;10.390;2022-12-29T06:56:18;99179.19;;;8.79;91.26
77325;BME280;66387;53.440;10.390;2022-12-29T06:58:44;99171.63;;;8.72;91.27
77325;BME280;66387;53.440;10.390;2022-12-29T07:01:09;99173.25;;;8.76;90.94
77325;BME280;66387;53.440;10.390;2022-12-29T07:03:34;99172.50;;;8.71;91.78
77325;BME280;66387;53.440;10.390;2022-12-29T07:06:00;99176.00;;;8.70;91.73
77325;BME280;66387;53.440;10.390;2022-12-29T07:08:25;99177.75;;;8.69;92.18
77325;BME280;66387;53.440;10.390;2022-12-29T07:10:50;99177.00;;;8.66;92.09
77325;BME280;66387;53.440;10.390;2022-12-29T07:13:15;99172.56;;;8.69;91.78
77325;BME280;66387;53.440;10.390;2022-12-29T07:15:41;99169.13;;;8.69;91.78
77325;BME280;66387;53.440;10.390;2022-12-29T07:18:06;99171.75;;;8.67;91.95
77325;BME280;66387;53.440;10.390;2022-12-29T07:20:31;99175.25;;;8.66;92.32
77325;BME280;66387;53.440;10.390;2022-12-29T07:22:57;99162.44;;;8.62;92.10
77325;BME280;66387;53.440;10.390;2022-12-29T07:25:22;99162.44;;;8.62;92.40
77325;BME280;66387;53.440;10.390;2022-12-29T07:27:48;99158.00;;;8.67;91.93
77325;BME280;66387;53.440;10.390;2022-12-29T07:30:14;99162.81;;;8.79;90.83
77325;BME280;66387;53.440;10.390;2022-12-29T07:32:39;99172.34;;;8.77;91.48
77325;BME280;66387;53.440;10.390;2022-12-29T07:35:05;99165.13;;;8.88;90.21
77325;BME280;66387;53.440;10.390;2022-12-29T07:37:31;99191.69;;;8.95;90.24
77325;BME280;66387;53.440;10.390;2022-12-29T07:39:56;99176.81;;;9.01;89.13
77325;BME280;66387;53.440;10.390;2022-12-29T07:42:21;99181.94;;;9.03;88.79
77325;BME280;66387;53.440;10.390;2022-12-29T07:44:47;99169.81;;;9.05;89.50
77325;BME280;66387;53.440;10.390;2022-12-29T07:47:12;99183.78;;;8.99;90.27
77325;BME280;66387;53.440;10.390;2022-12-29T07:49:37;99196.09;;;8.91;89.65
77325;BME280;66387;53.440;10.390;2022-12-29T07:52:02;99198.88;;;8.85;90.90
77325;BME280;66387;53.440;10.390;2022-12-29T07:54:28;99196.44;;;8.79;91.36
77325;BME280;66387;53.440;10.390;2022-12-29T07:56:53;99181.78;;;9.07;88.99
77325;BME280;66387;53.440;10.390;2022-12-29T07:59:18;99178.31;;;9.08;89.67
77325;BME280;66387;53.440;10.390;2022-12-29T08:01:44;99184.66;;;8.98;90.36
77325;BME280;66387;53.440;10.390;2022-12-29T08:04:09;99194.28;;;8.93;91.00
77325;BME280;66387;53.440;10.390;2022-12-29T08:06:34;99207.31;;;8.90;90.77
77325;BME280;66387;53.440;10.390;2022-12-29T08:09:00;99197.94;;;8.86;91.70
77325;BME280;66387;53.440;10.390;2022-12-29T08:11:26;99208.41;;;8.83;91.73
77325;BME280;66387;53.440;10.390;2022-12-29T08:13:51;99198.81;;;8.86;91.46
77325;BME280;66387;53.440;10.390;2022-12-29T08:16:17;99204.84;;;8.87;91.64
77325;BME280;66387;53.440;10.390;2022-12-29T08:18:42;99190.28;;;8.83;91.94
77325;BME280;66387;53.440;10.390;2022-12-29T08:21:07;99204.81;;;8.89;91.36
77325;BME280;66387;53.440;10.390;2022-12-29T08:23:33;99205.63;;;8.89;90.96
77325;BME280;66387;53.440;10.390;2022-12-29T08:25:59;99207.31;;;8.90;91.16
77325;BME280;66387;53.440;10.390;2022-12-29T08:28:25;99216.25;;;8.80;91.55
77325;BME280;66387;53.440;10.390;2022-12-29T08:30:50;99213.66;;;8.80;91.02
77325;BME280;66387;53.440;10.390;2022-12-29T08:33:15;99229.09;;;8.83;90.89
77325;BME280;66387;53.440;10.390;2022-12-29T08:35:41;99226.63;;;8.78;90.76
77325;BME280;66387;53.440;10.390;2022-12-29T08:38:06;99236.91;;;8.81;90.50
77325;BME280;66387;53.440;10.390;2022-12-29T08:40:31;99225.78;;;8.78;90.27
77325;BME280;66387;53.440;10.390;2022-12-29T08:42:56;99229.38;;;8.74;90.50
77325;BME280;66387;53.440;10.390;2022-12-29T08:45:22;99233.84;;;8.67;90.49
77325;BME280;66387;53.440;10.390;2022-12-29T08:47:47;99241.66;;;8.66;90.13
77325;BME280;66387;53.440;10.390;2022-12-29T08:50:12;99241.56;;;8.69;89.84
77325;BME280;66387;53.440;10.390;2022-12-29T08:52:37;99227.59;;;8.74;89.37
77325;BME280;66387;53.440;10.390;2022-12-29T08:55:03;99235.13;;;8.83;89.16
77325;BME280;66387;53.440;10.390;2022-12-29T08:57:28;99233.38;;;8.84;88.83
77325;BME280;66387;53.440;10.390;2022-12-29T08:59:53;99236.84;;;8.84;88.77
77325;BME280;66387;53.440;10.390;2022-12-29T09:02:19;99247.09;;;8.88;88.50
77325;BME280;66387;53.440;10.390;2022-12-29T09:04:44;99248.72;;;8.92;88.30
77325;BME280;66387;53.440;10.390;2022-12-29T09:07:10;99254.56;;;8.98;88.45
77325;BME280;66387;53.440;10.390;2022-12-29T09:09:35;99255.44;;;8.97;88.44
77325;BME280;66387;53.440;10.390;2022-12-29T09:12:01;99258.03;;;8.97;87.66
77325;BME280;66387;53.440;10.390;2022-12-29T09:14:26;99259.75;;;8.97;87.70
77325;BME280;66387;53.440;10.390;2022-12-29T09:16:51;99249.47;;;8.95;86.99
77325;BME280;66387;53.440;10.390;2022-12-29T09:19:35;99254.56;;;8.98;87.07
77325;BME280;66387;53.440;10.390;2022-12-29T09:22:00;99255.50;;;8.96;86.62
77325;BME280;66387;53.440;10.390;2022-12-29T09:24:26;99252.53;;;9.08;85.52
77325;BME280;66387;53.440;10.390;2022-12-29T09:26:51;99252.72;;;9.02;85.52
77325;BME280;66387;53.440;10.390;2022-12-29T09:29:16;99254.38;;;9.04;85.39
77325;BME280;66387;53.440;10.390;2022-12-29T09:31:41;99259.53;;;9.04;85.57
77325;BME280;66387;53.440;10.390;2022-12-29T09:34:07;99269.09;;;9.02;84.90
77325;BME280;66387;53.440;10.390;2022-12-29T09:36:32;99268.06;;;9.08;84.56
77325;BME280;66387;53.440;10.390;2022-12-29T09:38:57;99274.97;;;9.07;84.80
77325;BME280;66387;53.440;10.390;2022-12-29T09:41:39;99268.06;;;9.08;84.67
77325;BME280;66387;53.440;10.390;2022-12-29T09:44:28;99277.44;;;9.12;84.30
77325;BME280;66387;53.440;10.390;2022-12-29T09:46:56;99269.66;;;9.13;83.22
77325;BME280;66387;53.440;10.390;2022-12-29T09:52:15;99275.69;;;9.14;83.41
77325;BME280;66387;53.440;10.390;2022-12-29T09:54:58;99277.31;;;9.16;82.36
77325;BME280;66387;53.440;10.390;2022-12-29T09:57:34;99277.31;;;9.16;83.05
77325;BME280;66387;53.440;10.390;2022-12-29T10:00:20;99273.78;;;9.19;81.87
77325;BME280;66387;53.440;10.390;2022-12-29T10:02:49;99279.94;;;9.15;83.26
77325;BME280;66387;53.440;10.390;2022-12-29T10:07:45;99287.25;;;9.31;81.67
77325;BME280;66387;53.440;10.390;2022-12-29T10:10:19;99277.53;;;9.38;81.58
77325;BME280;66387;53.440;10.390;2022-12-29T10:13:01;99269.00;;;9.36;80.58
77325;BME280;66387;53.440;10.390;2022-12-29T10:16:02;99283.81;;;9.31;81.51
77325;BME280;66387;53.440;10.390;2022-12-29T10:18:32;99277.13;;;9.22;81.43
77325;BME280;66387;53.440;10.390;2022-12-29T10:23:51;99278.50;;;9.35;81.38
77325;BME280;66387;53.440;10.390;2022-12-29T10:26:20;99287.78;;;9.43;80.86
77325;BME280;66387;53.440;10.390;2022-12-29T10:28:57;99285.81;;;9.51;81.27
77325;BME280;66387;53.440;10.390;2022-12-29T10:31:36;99297.16;;;9.47;81.11
77325;BME280;66387;53.440;10.390;2022-12-29T10:34:10;99285.94;;;9.46;80.83
77325;BME280;66387;53.440;10.390;2022-12-29T10:36:42;99264.91;;;9.57;81.11
77325;BME280;66387;53.440;10.390;2022-12-29T10:41:59;99289.75;;;9.62;79.65
77325;BME280;66387;53.440;10.390;2022-12-29T10:44:30;99280.16;;;9.66;79.23
77325;BME280;66387;53.440;10.390;2022-12-29T10:47:02;99293.94;;;9.66;79.84
77325;BME280;66387;53.440;10.390;2022-12-29T10:49:30;99290.59;;;9.63;78.96
77325;BME280;66387;53.440;10.390;2022-12-29T10:51:58;99288.84;;;9.65;79.26
77325;BME280;66387;53.440;10.390;2022-12-29T10:54:51;99286.94;;;9.70;78.73
77325;BME280;66387;53.440;10.390;2022-12-29T10:57:36;99286.94;;;9.70;78.41
77325;BME280;66387;53.440;10.390;2022-12-29T11:05:27;99291.25;;;9.69;78.06
77325;BME280;66387;53.440;10.390;2022-12-29T11:08:01;99296.44;;;9.69;77.76
77325;BME280;66387;53.440;10.390;2022-12-29T11:13:04;99282.34;;;9.79;77.40
77325;BME280;66387;53.440;10.390;2022-12-29T11:15:47;99289.25;;;9.79;77.74
77325;BME280;66387;53.440;10.390;2022-12-29T11:18:31;99288.44;;;9.77;77.23
77325;BME280;66387;53.440;10.390;2022-12-29T11:21:01;99285.72;;;9.81;75.65
77325;BME280;66387;53.440;10.390;2022-12-29T11:23:32;99297.94;;;9.76;75.50
77325;BME280;66387;53.440;10.390;2022-12-29T11:26:19;99287.50;;;9.79;74.55
77325;BME280;66387;53.440;10.390;2022-12-29T11:29:37;99286.34;;;9.88;74.99
77325;BME280;66387;53.440;10.390;2022-12-29T11:31:40;99290.84;;;9.83;76.10
77325;BME280;66387;53.440;10.390;2022-12-29T11:34:07;99284.25;;;9.73;75.21
77325;BME280;66387;53.440;10.390;2022-12-29T11:36:33;99298.91;;;9.74;75.58
77325;BME280;66387;53.440;10.390;2022-12-29T11:38:59;99292.31;;;9.64;75.41
77325;BME280;66387;53.440;10.390;2022-12-29T11:41:30;99310.56;;;9.59;76.08
77325;BME280;66387;53.440;10.390;2022-12-29T11:43:58;99294.56;;;9.47;77.67
77325;BME280;66387;53.440;10.390;2022-12-29T11:46:36;99285.72;;;9.24;79.12
77325;BME280;66387;53.440;10.390;2022-12-29T11:49:03;99292.13;;;9.11;80.70
77325;BME280;66387;53.440;10.390;2022-12-29T11:51:43;99294.09;;;9.03;80.30
77325;BME280;66387;53.440;10.390;2022-12-29T11:54:21;99295.09;;;8.99;81.58
77325;BME280;66387;53.440;10.390;2022-12-29T11:56:48;99284.53;;;9.05;80.42
77325;BME280;66387;53.440;10.390;2022-12-29T12:01:52;99290.47;;;9.09;81.33
77325;BME280;66387;53.440;10.390;2022-12-29T12:04:21;99286.34;;;9.03;81.89
77325;BME280;66387;53.440;10.390;2022-12-29T12:09:26;99294.09;;;9.03;82.14
77325;BME280;66387;53.440;10.390;2022-12-29T12:11:54;99285.34;;;9.07;81.76
77325;BME280;66387;53.440;10.390;2022-12-29T12:14:25;99274.84;;;9.12;81.74
77325;BME280;66387;53.440;10.390;2022-12-29T12:16:56;99290.25;;;9.18;80.87
77325;BME280;66387;53.440;10.390;2022-12-29T12:22:03;99289.06;;;9.28;81.39
77325;BME280;66387;53.440;10.390;2022-12-29T12:24:34;99287.19;;;9.33;81.14
77325;BME280;66387;53.440;10.390;2022-12-29T12:27:19;99288.78;;;9.37;79.57
77325;BME280;66387;53.440;10.390;2022-12-29T12:32:41;99275.34;;;9.54;78.78
77325;BME280;66387;53.440;10.390;2022-12-29T12:35:13;99281.59;;;9.76;77.48
77325;BME280;66387;53.440;10.390;2022-12-29T12:51:19;99279.00;;;10.02;72.04
77325;BME280;66387;53.440;10.390;2022-12-29T12:59:30;99280.16;;;9.94;71.71
77325;BME280;66387;53.440;10.390;2022-12-29T13:02:09;99293.97;;;9.94;70.72
77325;BME280;66387;53.440;10.390;2022-12-29T13:04:59;99287.22;;;9.89;71.24
77325;BME280;66387;53.440;10.390;2022-12-29T13:07:36;99295.75;;;9.92;71.73
77325;BME280;66387;53.440;10.390;2022-12-29T13:15:57;99302.28;;;10.04;70.62
77325;BME280;66387;53.440;10.390;2022-12-29T13:21:07;99308.03;;;10.13;69.26
77325;BME280;66387;53.440;10.390;2022-12-29T13:23:44;99299.56;;;10.08;69.12
77325;BME280;66387;53.440;10.390;2022-12-29T13:26:32;99306.06;;;10.21;69.30
77325;BME280;66387;53.440;10.390;2022-12-29T13:36:45;99313.63;;;10.01;70.02
77325;BME280;66387;53.440;10.390;2022-12-29T13:39:18;99319.72;;;9.99;69.61
77325;BME280;66387;53.440;10.390;2022-12-29T13:41:55;99328.56;;;9.93;70.09
77325;BME280;66387;53.440;10.390;2022-12-29T13:46:52;99334.53;;;9.95;70.19
77325;BME280;66387;53.440;10.390;2022-12-29T13:49:21;99331.03;;;9.96;70.57
77325;BME280;66387;53.440;10.390;2022-12-29T13:51:52;99345.75;;;9.96;70.90
77325;BME280;66387;53.440;10.390;2022-12-29T13:54:27;99344.00;;;9.96;71.10
77325;BME280;66387;53.440;10.390;2022-12-29T14:00:02;99343.16;;;9.96;71.90
77325;BME280;66387;53.440;10.390;2022-12-29T14:07:42;99360.84;;;9.83;72.25
77325;BME280;66387;53.440;10.390;2022-12-29T14:10:26;99357.53;;;9.78;72.40
77325;BME280;66387;53.440;10.390;2022-12-29T14:13:00;99368.75;;;9.78;72.44
77325;BME280;66387;53.440;10.390;2022-12-29T14:15:27;99361.75;;;9.80;71.76
77325;BME280;66387;53.440;10.390;2022-12-29T14:18:11;99376.38;;;9.83;72.23
77325;BME280;66387;53.440;10.390;2022-12-29T14:20:46;99361.81;;;9.79;72.53
77325;BME280;66387;53.440;10.390;2022-12-29T14:23:24;99386.13;;;9.75;73.10
77325;BME280;66387;53.440;10.390;2022-12-29T14:28:38;99382.03;;;9.68;73.08
77325;BME280;66387;53.440;10.390;2022-12-29T14:36:37;99418.28;;;9.68;73.36
77325;BME280;66387;53.440;10.390;2022-12-29T14:39:03;99427.13;;;9.61;73.89
77325;BME280;66387;53.440;10.390;2022-12-29T14:41:41;99440.78;;;9.66;73.20
77325;BME280;66387;53.440;10.390;2022-12-29T14:46:55;99443.09;;;9.46;74.40
77325;BME280;66387;53.440;10.390;2022-12-29T14:49:25;99441.66;;;9.35;74.80